sensor_id;sensor_type;location;lat;lon;timestamp;P1;durP1;ratioP1;P2;durP2;ratioP2
72205;SDS011;60111;48.286;7.812;2023-04-25T00:00:06;6.25;;;3.60;;
72205;SDS011;60111;48.286;7.812;2023-04-25T00:02:39;5.33;;;3.60;;
72205;SDS011;60111;48.286;7.812;2023-04-25T00:05:13;5.30;;;3.30;;
72205;SDS011;60111;48.286;7.812;2023-04-25T00:07:53;6.60;;;3.50;;
72205;SDS011;60111;48.286;7.812;2023-04-25T00:10:22;7.75;;;4.30;;
72205;SDS011;60111;48.286;7.812;2023-04-25T00:12:55;4.92;;;3.30;;
72205;SDS011;60111;48.286;7.812;2023-04-25T00:15:28;5.90;;;3.12;;
72205;SDS011;60111;48.286;7.812;2023-04-25T00:18:04;6.80;;;3.20;;
72205;SDS011;60111;48.286;7.812;2023-04-25T00:20:37;7.15;;;3.30;;
72205;SDS011;60111;48.286;7.812;2023-04-25T00:23:09;7.65;;;3.00;;
72205;SDS011;60111;48.286;7.812;2023-04-25T00:25:42;6.03;;;3.52;;
72205;SDS011;60111;48.286;7.812;2023-04-25T00:28:15;8.68;;;3.60;;
72205;SDS011;60111;48.286;7.812;2023-04-25T00:30:48;6.33;;;3.27;;
72205;SDS011;60111;48.286;7.812;2023-04-25T00:33:21;6.00;;;3.80;;
72205;SDS011;60111;48.286;7.812;2023-04-25T00:35:53;6.80;;;3.20;;
72205;SDS011;60111;48.286;7.812;2023-04-25T00:38:36;5.87;;;3.37;;
72205;SDS011;60111;48.286;7.812;2023-04-25T00:41:09;7.13;;;3.20;;
72205;SDS011;60111;48.286;7.812;2023-04-25T00:43:41;6.50;;;3.17;;
72205;SDS011;60111;48.286;7.812;2023-04-25T00:46:15;15.95;;;4.00;;
72205;SDS011;60111;48.286;7.812;2023-04-25T00:48:48;8.40;;;3.70;;
72205;SDS011;60111;48.286;7.812;2023-04-25T00:51:21;9.45;;;3.40;;
72205;SDS011;60111;48.286;7.812;2023-04-25T00:53:54;6.40;;;3.30;;
72205;SDS011;60111;48.286;7.812;2023-04-25T00:56:26;5.78;;;2.58;;
72205;SDS011;60111;48.286;7.812;2023-04-25T00:58:59;3.92;;;2.80;;
72205;SDS011;60111;48.286;7.812;2023-04-25T01:01:32;5.42;;;2.85;;
72205;SDS011;60111;48.286;7.812;2023-04-25T01:04:05;4.03;;;2.70;;
72205;SDS011;60111;48.286;7.812;2023-04-25T01:06:39;5.53;;;2.70;;
72205;SDS011;60111;48.286;7.812;2023-04-25T01:09:12;3.80;;;2.30;;
72205;SDS011;60111;48.286;7.812;2023-04-25T01:11:45;5.35;;;2.85;;
72205;SDS011;60111;48.286;7.812;2023-04-25T01:14:18;4.92;;;2.80;;
72205;SDS011;60111;48.286;7.812;2023-04-25T01:16:51;8.13;;;2.90;;
72205;SDS011;60111;48.286;7.812;2023-04-25T01:19:24;4.65;;;2.40;;
72205;SDS011;60111;48.286;7.812;2023-04-25T01:21:57;3.85;;;2.40;;
72205;SDS011;60111;48.286;7.812;2023-04-25T01:24:31;3.25;;;2.60;;
72205;SDS011;60111;48.286;7.812;2023-04-25T01:27:04;4.80;;;2.70;;
72205;SDS011;60111;48.286;7.812;2023-04-25T01:29:37;5.12;;;2.95;;
72205;SDS011;60111;48.286;7.812;2023-04-25T01:32:10;5.80;;;2.87;;
72205;SDS011;60111;48.286;7.812;2023-04-25T01:34:45;8.73;;;3.00;;
72205;SDS011;60111;48.286;7.812;2023-04-25T01:37:18;3.67;;;2.37;;
72205;SDS011;60111;48.286;7.812;2023-04-25T01:39:50;4.23;;;2.60;;
72205;SDS011;60111;48.286;7.812;2023-04-25T01:42:24;5.35;;;2.50;;
72205;SDS011;60111;48.286;7.812;2023-04-25T01:44:56;6.25;;;2.52;;
72205;SDS011;60111;48.286;7.812;2023-04-25T01:47:29;4.78;;;2.62;;
72205;SDS011;60111;48.286;7.812;2023-04-25T01:50:03;4.42;;;2.77;;
72205;SDS011;60111;48.286;7.812;2023-04-25T01:52:37;6.03;;;2.60;;
72205;SDS011;60111;48.286;7.812;2023-04-25T01:55:10;6.53;;;3.00;;
72205;SDS011;60111;48.286;7.812;2023-04-25T01:57:42;7.17;;;2.90;;
72205;SDS011;60111;48.286;7.812;2023-04-25T02:00:15;6.20;;;3.10;;
72205;SDS011;60111;48.286;7.812;2023-04-25T02:02:48;6.85;;;2.83;;
72205;SDS011;60111;48.286;7.812;2023-04-25T02:05:21;6.23;;;2.70;;
72205;SDS011;60111;48.286;7.812;2023-04-25T02:07:53;7.08;;;3.37;;
72205;SDS011;60111;48.286;7.812;2023-04-25T02:10:26;5.37;;;3.00;;
72205;SDS011;60111;48.286;7.812;2023-04-25T02:12:59;9.33;;;3.65;;
72205;SDS011;60111;48.286;7.812;2023-04-25T02:15:32;5.22;;;3.27;;
72205;SDS011;60111;48.286;7.812;2023-04-25T02:18:04;3.58;;;2.65;;
72205;SDS011;60111;48.286;7.812;2023-04-25T02:20:37;6.15;;;3.30;;
72205;SDS011;60111;48.286;7.812;2023-04-25T02:23:09;3.87;;;2.92;;
72205;SDS011;60111;48.286;7.812;2023-04-25T02:25:43;6.58;;;3.35;;
72205;SDS011;60111;48.286;7.812;2023-04-25T02:28:16;4.90;;;2.70;;
72205;SDS011;60111;48.286;7.812;2023-04-25T02:30:49;7.60;;;3.10;;
72205;SDS011;60111;48.286;7.812;2023-04-25T02:33:21;4.90;;;3.10;;
72205;SDS011;60111;48.286;7.812;2023-04-25T02:38:46;4.17;;;2.95;;
72205;SDS011;60111;48.286;7.812;2023-04-25T02:41:18;4.90;;;2.93;;
72205;SDS011;60111;48.286;7.812;2023-04-25T02:43:51;5.57;;;3.00;;
72205;SDS011;60111;48.286;7.812;2023-04-25T02:46:24;6.78;;;3.20;;
72205;SDS011;60111;48.286;7.812;2023-04-25T02:48:56;6.20;;;3.27;;
72205;SDS011;60111;48.286;7.812;2023-04-25T02:51:29;4.78;;;2.90;;
72205;SDS011;60111;48.286;7.812;2023-04-25T02:54:02;8.08;;;3.30;;
72205;SDS011;60111;48.286;7.812;2023-04-25T02:56:34;5.00;;;3.30;;
72205;SDS011;60111;48.286;7.812;2023-04-25T02:59:07;6.30;;;3.62;;
72205;SDS011;60111;48.286;7.812;2023-04-25T03:01:40;8.38;;;3.60;;
72205;SDS011;60111;48.286;7.812;2023-04-25T03:04:12;11.30;;;3.70;;
72205;SDS011;60111;48.286;7.812;2023-04-25T03:06:45;6.95;;;3.70;;
72205;SDS011;60111;48.286;7.812;2023-04-25T03:09:18;9.20;;;4.30;;
72205;SDS011;60111;48.286;7.812;2023-04-25T03:11:51;8.45;;;3.83;;
72205;SDS011;60111;48.286;7.812;2023-04-25T03:14:23;6.28;;;3.30;;
72205;SDS011;60111;48.286;7.812;2023-04-25T03:16:56;5.70;;;3.67;;
72205;SDS011;60111;48.286;7.812;2023-04-25T03:19:29;4.55;;;3.67;;
72205;SDS011;60111;48.286;7.812;2023-04-25T03:22:01;9.38;;;4.60;;
72205;SDS011;60111;48.286;7.812;2023-04-25T03:24:34;8.28;;;4.37;;
72205;SDS011;60111;48.286;7.812;2023-04-25T03:27:08;8.53;;;4.57;;
72205;SDS011;60111;48.286;7.812;2023-04-25T03:29:40;6.67;;;4.03;;
72205;SDS011;60111;48.286;7.812;2023-04-25T03:32:13;6.55;;;3.83;;
72205;SDS011;60111;48.286;7.812;2023-04-25T03:34:46;8.18;;;4.10;;
72205;SDS011;60111;48.286;7.812;2023-04-25T03:37:18;8.97;;;4.03;;
72205;SDS011;60111;48.286;7.812;2023-04-25T03:39:51;8.20;;;4.78;;
72205;SDS011;60111;48.286;7.812;2023-04-25T03:42:23;12.63;;;4.53;;
72205;SDS011;60111;48.286;7.812;2023-04-25T03:44:56;9.45;;;5.75;;
72205;SDS011;60111;48.286;7.812;2023-04-25T03:47:28;9.35;;;4.37;;
72205;SDS011;60111;48.286;7.812;2023-04-25T03:50:01;7.90;;;4.30;;
72205;SDS011;60111;48.286;7.812;2023-04-25T03:52:34;6.37;;;4.30;;
72205;SDS011;60111;48.286;7.812;2023-04-25T03:55:06;8.88;;;4.30;;
72205;SDS011;60111;48.286;7.812;2023-04-25T03:57:40;7.15;;;4.12;;
72205;SDS011;60111;48.286;7.812;2023-04-25T04:00:13;6.05;;;4.12;;
72205;SDS011;60111;48.286;7.812;2023-04-25T04:02:46;7.53;;;4.45;;
72205;SDS011;60111;48.286;7.812;2023-04-25T04:05:18;9.17;;;4.17;;
72205;SDS011;60111;48.286;7.812;2023-04-25T04:07:51;9.33;;;4.60;;
72205;SDS011;60111;48.286;7.812;2023-04-25T04:10:23;8.03;;;4.07;;
72205;SDS011;60111;48.286;7.812;2023-04-25T04:12:57;5.80;;;4.05;;
72205;SDS011;60111;48.286;7.812;2023-04-25T04:15:29;8.73;;;4.17;;
72205;SDS011;60111;48.286;7.812;2023-04-25T04:20:35;6.60;;;4.37;;
72205;SDS011;60111;48.286;7.812;2023-04-25T04:23:08;6.60;;;4.00;;
72205;SDS011;60111;48.286;7.812;2023-04-25T04:25:41;10.55;;;4.37;;
72205;SDS011;60111;48.286;7.812;2023-04-25T04:28:14;7.28;;;4.30;;
72205;SDS011;60111;48.286;7.812;2023-04-25T04:30:46;6.30;;;4.42;;
72205;SDS011;60111;48.286;7.812;2023-04-25T04:33:21;8.58;;;3.98;;
72205;SDS011;60111;48.286;7.812;2023-04-25T04:35:54;6.87;;;4.17;;
72205;SDS011;60111;48.286;7.812;2023-04-25T04:38:27;8.38;;;4.80;;
72205;SDS011;60111;48.286;7.812;2023-04-25T04:41:00;6.10;;;4.22;;
72205;SDS011;60111;48.286;7.812;2023-04-25T04:43:33;7.17;;;4.55;;
72205;SDS011;60111;48.286;7.812;2023-04-25T04:46:05;6.92;;;4.40;;
72205;SDS011;60111;48.286;7.812;2023-04-25T04:48:38;9.38;;;5.33;;
72205;SDS011;60111;48.286;7.812;2023-04-25T04:51:10;6.45;;;4.33;;
72205;SDS011;60111;48.286;7.812;2023-04-25T04:53:43;5.33;;;4.25;;
72205;SDS011;60111;48.286;7.812;2023-04-25T04:56:16;8.28;;;4.50;;
72205;SDS011;60111;48.286;7.812;2023-04-25T04:58:48;6.87;;;4.70;;
72205;SDS011;60111;48.286;7.812;2023-04-25T05:01:21;6.87;;;5.00;;
72205;SDS011;60111;48.286;7.812;2023-04-25T05:03:54;8.48;;;4.80;;
72205;SDS011;60111;48.286;7.812;2023-04-25T05:06:28;7.47;;;4.75;;
72205;SDS011;60111;48.286;7.812;2023-04-25T05:09:01;10.43;;;5.57;;
72205;SDS011;60111;48.286;7.812;2023-04-25T05:11:34;9.93;;;6.22;;
72205;SDS011;60111;48.286;7.812;2023-04-25T05:14:07;11.45;;;8.08;;
72205;SDS011;60111;48.286;7.812;2023-04-25T05:16:39;12.20;;;8.63;;
72205;SDS011;60111;48.286;7.812;2023-04-25T05:19:12;12.05;;;9.63;;
72205;SDS011;60111;48.286;7.812;2023-04-25T05:21:45;18.05;;;10.20;;
72205;SDS011;60111;48.286;7.812;2023-04-25T05:24:18;16.33;;;9.73;;
72205;SDS011;60111;48.286;7.812;2023-04-25T05:26:50;15.40;;;9.53;;
72205;SDS011;60111;48.286;7.812;2023-04-25T05:29:23;14.98;;;9.40;;
72205;SDS011;60111;48.286;7.812;2023-04-25T05:31:56;15.67;;;9.30;;
72205;SDS011;60111;48.286;7.812;2023-04-25T05:34:29;11.43;;;6.95;;
72205;SDS011;60111;48.286;7.812;2023-04-25T05:37:01;9.90;;;7.10;;
72205;SDS011;60111;48.286;7.812;2023-04-25T05:39:34;9.78;;;5.87;;
72205;SDS011;60111;48.286;7.812;2023-04-25T05:42:08;7.92;;;5.53;;
72205;SDS011;60111;48.286;7.812;2023-04-25T05:44:41;7.95;;;4.92;;
72205;SDS011;60111;48.286;7.812;2023-04-25T05:47:14;8.48;;;4.97;;
72205;SDS011;60111;48.286;7.812;2023-04-25T05:49:46;11.70;;;4.80;;
72205;SDS011;60111;48.286;7.812;2023-04-25T05:52:19;6.08;;;4.42;;
72205;SDS011;60111;48.286;7.812;2023-04-25T05:54:51;7.03;;;4.53;;
72205;SDS011;60111;48.286;7.812;2023-04-25T05:57:25;7.28;;;3.90;;
72205;SDS011;60111;48.286;7.812;2023-04-25T05:59:58;4.92;;;3.35;;
72205;SDS011;60111;48.286;7.812;2023-04-25T06:02:31;5.15;;;3.75;;
72205;SDS011;60111;48.286;7.812;2023-04-25T06:05:03;4.70;;;3.25;;
72205;SDS011;60111;48.286;7.812;2023-04-25T06:07:36;6.37;;;3.73;;
72205;SDS011;60111;48.286;7.812;2023-04-25T06:10:09;7.03;;;4.60;;
72205;SDS011;60111;48.286;7.812;2023-04-25T06:12:41;7.03;;;2.98;;
72205;SDS011;60111;48.286;7.812;2023-04-25T06:15:14;7.00;;;3.10;;
72205;SDS011;60111;48.286;7.812;2023-04-25T06:17:46;4.05;;;2.77;;
72205;SDS011;60111;48.286;7.812;2023-04-25T06:20:19;4.17;;;2.87;;
72205;SDS011;60111;48.286;7.812;2023-04-25T06:22:54;2.47;;;2.10;;
72205;SDS011;60111;48.286;7.812;2023-04-25T06:25:27;4.47;;;2.15;;
72205;SDS011;60111;48.286;7.812;2023-04-25T06:27:59;2.98;;;1.85;;
72205;SDS011;60111;48.286;7.812;2023-04-25T06:30:32;4.75;;;2.00;;
72205;SDS011;60111;48.286;7.812;2023-04-25T06:33:04;3.30;;;1.62;;
72205;SDS011;60111;48.286;7.812;2023-04-25T06:35:38;3.15;;;1.62;;
72205;SDS011;60111;48.286;7.812;2023-04-25T06:38:11;3.45;;;1.40;;
72205;SDS011;60111;48.286;7.812;2023-04-25T06:40:44;5.58;;;1.95;;
72205;SDS011;60111;48.286;7.812;2023-04-25T06:43:16;1.45;;;1.35;;
72205;SDS011;60111;48.286;7.812;2023-04-25T06:45:49;3.20;;;1.27;;
72205;SDS011;60111;48.286;7.812;2023-04-25T06:48:21;1.30;;;1.20;;
72205;SDS011;60111;48.286;7.812;2023-04-25T06:50:54;2.70;;;1.10;;
72205;SDS011;60111;48.286;7.812;2023-04-25T06:53:27;5.15;;;1.10;;
72205;SDS011;60111;48.286;7.812;2023-04-25T06:55:59;3.07;;;0.90;;
72205;SDS011;60111;48.286;7.812;2023-04-25T06:58:32;2.20;;;1.15;;
72205;SDS011;60111;48.286;7.812;2023-04-25T07:01:05;2.52;;;1.07;;
72205;SDS011;60111;48.286;7.812;2023-04-25T07:03:37;2.75;;;1.25;;
72205;SDS011;60111;48.286;7.812;2023-04-25T07:06:10;3.58;;;1.30;;
72205;SDS011;60111;48.286;7.812;2023-04-25T07:08:43;8.25;;;1.52;;
72205;SDS011;60111;48.286;7.812;2023-04-25T07:11:16;4.05;;;1.40;;
72205;SDS011;60111;48.286;7.812;2023-04-25T07:13:48;1.98;;;1.35;;
72205;SDS011;60111;48.286;7.812;2023-04-25T07:16:21;5.37;;;1.50;;
72205;SDS011;60111;48.286;7.812;2023-04-25T07:18:54;4.63;;;2.03;;
72205;SDS011;60111;48.286;7.812;2023-04-25T07:21:27;3.00;;;1.82;;
72205;SDS011;60111;48.286;7.812;2023-04-25T07:24:02;2.85;;;2.20;;
72205;SDS011;60111;48.286;7.812;2023-04-25T07:26:34;2.83;;;2.20;;
72205;SDS011;60111;48.286;7.812;2023-04-25T07:29:07;2.87;;;1.95;;
72205;SDS011;60111;48.286;7.812;2023-04-25T07:31:40;5.63;;;1.80;;
72205;SDS011;60111;48.286;7.812;2023-04-25T07:34:14;2.26;;;1.74;;
72205;SDS011;60111;48.286;7.812;2023-04-25T07:36:46;3.20;;;2.70;;
72205;SDS011;60111;48.286;7.812;2023-04-25T07:39:19;7.55;;;4.28;;
72205;SDS011;60111;48.286;7.812;2023-04-25T07:41:52;3.67;;;3.25;;
72205;SDS011;60111;48.286;7.812;2023-04-25T07:44:24;2.65;;;2.27;;
72205;SDS011;60111;48.286;7.812;2023-04-25T07:46:57;2.90;;;1.90;;
72205;SDS011;60111;48.286;7.812;2023-04-25T07:49:29;4.08;;;2.02;;
72205;SDS011;60111;48.286;7.812;2023-04-25T07:52:02;2.05;;;1.65;;
72205;SDS011;60111;48.286;7.812;2023-04-25T07:54:38;2.33;;;1.95;;
72205;SDS011;60111;48.286;7.812;2023-04-25T07:57:10;2.87;;;2.00;;
72205;SDS011;60111;48.286;7.812;2023-04-25T07:59:44;1.90;;;1.80;;
72205;SDS011;60111;48.286;7.812;2023-04-25T08:02:17;2.47;;;1.77;;
72205;SDS011;60111;48.286;7.812;2023-04-25T08:04:49;2.10;;;1.60;;
72205;SDS011;60111;48.286;7.812;2023-04-25T08:07:22;2.47;;;2.00;;
72205;SDS011;60111;48.286;7.812;2023-04-25T08:09:54;3.35;;;1.87;;
72205;SDS011;60111;48.286;7.812;2023-04-25T08:12:28;2.37;;;1.97;;
72205;SDS011;60111;48.286;7.812;2023-04-25T08:15:01;2.52;;;2.02;;
72205;SDS011;60111;48.286;7.812;2023-04-25T08:17:35;5.93;;;2.20;;
72205;SDS011;60111;48.286;7.812;2023-04-25T08:20:07;3.98;;;1.87;;
72205;SDS011;60111;48.286;7.812;2023-04-25T08:22:41;1.80;;;1.70;;
72205;SDS011;60111;48.286;7.812;2023-04-25T08:25:14;3.05;;;1.80;;
72205;SDS011;60111;48.286;7.812;2023-04-25T08:27:47;1.80;;;1.70;;
72205;SDS011;60111;48.286;7.812;2023-04-25T08:30:19;1.93;;;1.67;;
72205;SDS011;60111;48.286;7.812;2023-04-25T08:32:52;2.22;;;1.95;;
72205;SDS011;60111;48.286;7.812;2023-04-25T08:35:24;3.25;;;1.90;;
72205;SDS011;60111;48.286;7.812;2023-04-25T08:37:57;4.97;;;1.73;;
72205;SDS011;60111;48.286;7.812;2023-04-25T08:40:30;2.58;;;1.70;;
72205;SDS011;60111;48.286;7.812;2023-04-25T08:43:06;2.80;;;2.10;;
72205;SDS011;60111;48.286;7.812;2023-04-25T08:45:41;2.90;;;2.10;;
72205;SDS011;60111;48.286;7.812;2023-04-25T08:48:15;3.90;;;1.90;;
72205;SDS011;60111;48.286;7.812;2023-04-25T08:50:49;2.87;;;1.80;;
72205;SDS011;60111;48.286;7.812;2023-04-25T08:53:27;2.22;;;1.70;;
72205;SDS011;60111;48.286;7.812;2023-04-25T08:56:01;2.55;;;1.87;;
72205;SDS011;60111;48.286;7.812;2023-04-25T08:58:34;4.00;;;3.17;;
72205;SDS011;60111;48.286;7.812;2023-04-25T09:01:09;4.85;;;3.95;;
72205;SDS011;60111;48.286;7.812;2023-04-25T09:03:41;4.73;;;1.77;;
72205;SDS011;60111;48.286;7.812;2023-04-25T09:06:15;2.45;;;1.25;;
72205;SDS011;60111;48.286;7.812;2023-04-25T09:08:49;3.70;;;1.60;;
72205;SDS011;60111;48.286;7.812;2023-04-25T09:11:22;4.47;;;2.27;;
72205;SDS011;60111;48.286;7.812;2023-04-25T09:14:15;1.95;;;1.62;;
72205;SDS011;60111;48.286;7.812;2023-04-25T09:19:34;1.60;;;1.22;;
72205;SDS011;60111;48.286;7.812;2023-04-25T09:22:09;1.27;;;1.17;;
72205;SDS011;60111;48.286;7.812;2023-04-25T09:24:42;2.40;;;1.50;;
72205;SDS011;60111;48.286;7.812;2023-04-25T09:27:20;3.33;;;2.20;;
72205;SDS011;60111;48.286;7.812;2023-04-25T09:29:58;4.87;;;3.07;;
72205;SDS011;60111;48.286;7.812;2023-04-25T09:32:33;5.90;;;4.60;;
72205;SDS011;60111;48.286;7.812;2023-04-25T09:35:06;1.80;;;1.70;;
72205;SDS011;60111;48.286;7.812;2023-04-25T09:37:40;2.12;;;1.20;;
72205;SDS011;60111;48.286;7.812;2023-04-25T09:40:13;1.60;;;1.50;;
72205;SDS011;60111;48.286;7.812;2023-04-25T09:42:46;1.87;;;1.57;;
72205;SDS011;60111;48.286;7.812;2023-04-25T09:45:18;4.22;;;1.30;;
72205;SDS011;60111;48.286;7.812;2023-04-25T09:47:55;2.07;;;1.20;;
72205;SDS011;60111;48.286;7.812;2023-04-25T09:50:28;1.35;;;1.00;;
72205;SDS011;60111;48.286;7.812;2023-04-25T09:53:04;1.12;;;0.82;;
72205;SDS011;60111;48.286;7.812;2023-04-25T09:55:37;1.10;;;1.00;;
72205;SDS011;60111;48.286;7.812;2023-04-25T09:58:11;1.10;;;1.00;;
72205;SDS011;60111;48.286;7.812;2023-04-25T10:00:45;1.33;;;1.23;;
72205;SDS011;60111;48.286;7.812;2023-04-25T10:03:18;1.37;;;1.20;;
72205;SDS011;60111;48.286;7.812;2023-04-25T10:05:52;1.50;;;1.40;;
72205;SDS011;60111;48.286;7.812;2023-04-25T10:08:25;1.30;;;1.20;;
72205;SDS011;60111;48.286;7.812;2023-04-25T10:11:07;1.93;;;1.43;;
72205;SDS011;60111;48.286;7.812;2023-04-25T10:13:40;1.37;;;1.27;;
72205;SDS011;60111;48.286;7.812;2023-04-25T10:16:14;1.40;;;1.30;;
72205;SDS011;60111;48.286;7.812;2023-04-25T10:18:48;1.95;;;1.35;;
72205;SDS011;60111;48.286;7.812;2023-04-25T10:21:21;1.70;;;1.60;;
72205;SDS011;60111;48.286;7.812;2023-04-25T10:23:54;2.10;;;1.70;;
72205;SDS011;60111;48.286;7.812;2023-04-25T10:26:27;3.05;;;1.65;;
72205;SDS011;60111;48.286;7.812;2023-04-25T10:29:01;2.00;;;1.50;;
72205;SDS011;60111;48.286;7.812;2023-04-25T10:31:38;2.55;;;1.72;;
72205;SDS011;60111;48.286;7.812;2023-04-25T10:34:12;1.65;;;1.50;;
72205;SDS011;60111;48.286;7.812;2023-04-25T10:36:51;1.60;;;1.50;;
72205;SDS011;60111;48.286;7.812;2023-04-25T10:39:24;1.67;;;1.32;;
72205;SDS011;60111;48.286;7.812;2023-04-25T10:41:59;4.97;;;1.75;;
72205;SDS011;60111;48.286;7.812;2023-04-25T10:47:06;2.47;;;1.77;;
72205;SDS011;60111;48.286;7.812;2023-04-25T10:49:43;2.85;;;1.72;;
72205;SDS011;60111;48.286;7.812;2023-04-25T10:52:25;1.60;;;1.50;;
72205;SDS011;60111;48.286;7.812;2023-04-25T10:55:04;3.17;;;2.13;;
72205;SDS011;60111;48.286;7.812;2023-04-25T10:57:41;3.05;;;1.80;;
72205;SDS011;60111;48.286;7.812;2023-04-25T11:00:18;3.45;;;2.02;;
72205;SDS011;60111;48.286;7.812;2023-04-25T11:02:53;3.90;;;2.10;;
72205;SDS011;60111;48.286;7.812;2023-04-25T11:05:38;2.10;;;1.80;;
72205;SDS011;60111;48.286;7.812;2023-04-25T11:08:10;2.15;;;1.95;;
72205;SDS011;60111;48.286;7.812;2023-04-25T11:10:47;1.70;;;1.60;;
72205;SDS011;60111;48.286;7.812;2023-04-25T11:13:22;2.83;;;1.85;;
72205;SDS011;60111;48.286;7.812;2023-04-25T11:15:56;2.10;;;1.70;;
72205;SDS011;60111;48.286;7.812;2023-04-25T11:18:30;1.90;;;1.80;;
72205;SDS011;60111;48.286;7.812;2023-04-25T11:21:04;4.10;;;2.40;;
72205;SDS011;60111;48.286;7.812;2023-04-25T11:23:38;2.07;;;1.70;;
72205;SDS011;60111;48.286;7.812;2023-04-25T11:26:11;3.27;;;2.10;;
72205;SDS011;60111;48.286;7.812;2023-04-25T11:28:45;2.95;;;1.90;;
72205;SDS011;60111;48.286;7.812;2023-04-25T11:31:20;1.90;;;1.57;;
72205;SDS011;60111;48.286;7.812;2023-04-25T11:33:53;2.08;;;1.92;;
72205;SDS011;60111;48.286;7.812;2023-04-25T11:36:28;2.65;;;1.85;;
72205;SDS011;60111;48.286;7.812;2023-04-25T11:39:01;2.47;;;1.90;;
72205;SDS011;60111;48.286;7.812;2023-04-25T11:41:34;2.98;;;1.60;;
72205;SDS011;60111;48.286;7.812;2023-04-25T11:46:40;2.67;;;1.20;;
72205;SDS011;60111;48.286;7.812;2023-04-25T11:49:15;4.92;;;1.30;;
72205;SDS011;60111;48.286;7.812;2023-04-25T11:51:49;4.05;;;1.25;;
72205;SDS011;60111;48.286;7.812;2023-04-25T11:54:21;3.02;;;1.32;;
72205;SDS011;60111;48.286;7.812;2023-04-25T11:56:55;3.67;;;1.40;;
72205;SDS011;60111;48.286;7.812;2023-04-25T11:59:28;4.73;;;1.30;;
72205;SDS011;60111;48.286;7.812;2023-04-25T12:02:00;2.77;;;1.00;;
72205;SDS011;60111;48.286;7.812;2023-04-25T12:04:33;3.25;;;1.30;;
72205;SDS011;60111;48.286;7.812;2023-04-25T12:07:09;2.20;;;1.17;;
72205;SDS011;60111;48.286;7.812;2023-04-25T12:12:41;1.62;;;0.90;;
72205;SDS011;60111;48.286;7.812;2023-04-25T12:15:17;1.00;;;0.90;;
72205;SDS011;60111;48.286;7.812;2023-04-25T12:17:52;0.72;;;0.72;;
72205;SDS011;60111;48.286;7.812;2023-04-25T12:20:26;0.98;;;0.90;;
72205;SDS011;60111;48.286;7.812;2023-04-25T12:22:58;2.30;;;1.00;;
72205;SDS011;60111;48.286;7.812;2023-04-25T12:25:44;3.00;;;1.22;;
72205;SDS011;60111;48.286;7.812;2023-04-25T12:28:24;1.57;;;1.30;;
72205;SDS011;60111;48.286;7.812;2023-04-25T12:31:04;2.53;;;1.83;;
72205;SDS011;60111;48.286;7.812;2023-04-25T12:33:38;4.27;;;1.50;;
72205;SDS011;60111;48.286;7.812;2023-04-25T12:36:11;2.45;;;2.15;;
72205;SDS011;60111;48.286;7.812;2023-04-25T12:38:44;3.45;;;1.12;;
72205;SDS011;60111;48.286;7.812;2023-04-25T12:41:17;3.07;;;1.40;;
72205;SDS011;60111;48.286;7.812;2023-04-25T12:43:49;1.02;;;1.00;;
72205;SDS011;60111;48.286;7.812;2023-04-25T12:46:22;2.00;;;1.30;;
72205;SDS011;60111;48.286;7.812;2023-04-25T12:48:54;1.20;;;1.10;;
72205;SDS011;60111;48.286;7.812;2023-04-25T12:51:28;1.80;;;1.10;;
72205;SDS011;60111;48.286;7.812;2023-04-25T12:54:01;1.10;;;1.00;;
72205;SDS011;60111;48.286;7.812;2023-04-25T12:56:35;4.03;;;1.87;;
72205;SDS011;60111;48.286;7.812;2023-04-25T12:59:07;3.00;;;1.70;;
72205;SDS011;60111;48.286;7.812;2023-04-25T13:01:40;2.17;;;1.75;;
72205;SDS011;60111;48.286;7.812;2023-04-25T13:04:13;2.58;;;1.60;;
72205;SDS011;60111;48.286;7.812;2023-04-25T13:06:46;1.60;;;1.50;;
72205;SDS011;60111;48.286;7.812;2023-04-25T13:09:19;1.90;;;1.70;;
72205;SDS011;60111;48.286;7.812;2023-04-25T13:11:51;1.37;;;1.27;;
72205;SDS011;60111;48.286;7.812;2023-04-25T13:14:24;2.83;;;1.60;;
72205;SDS011;60111;48.286;7.812;2023-04-25T13:16:56;4.73;;;1.60;;
72205;SDS011;60111;48.286;7.812;2023-04-25T13:19:29;1.83;;;1.70;;
72205;SDS011;60111;48.286;7.812;2023-04-25T13:22:02;2.93;;;1.10;;
72205;SDS011;60111;48.286;7.812;2023-04-25T13:24:35;1.20;;;1.10;;
72205;SDS011;60111;48.286;7.812;2023-04-25T13:27:07;1.80;;;1.47;;
72205;SDS011;60111;48.286;7.812;2023-04-25T13:29:40;1.30;;;1.20;;
72205;SDS011;60111;48.286;7.812;2023-04-25T13:32:12;1.72;;;1.30;;
72205;SDS011;60111;48.286;7.812;2023-04-25T13:34:45;1.30;;;1.20;;
72205;SDS011;60111;48.286;7.812;2023-04-25T13:37:18;1.73;;;1.53;;
72205;SDS011;60111;48.286;7.812;2023-04-25T13:39:50;2.40;;;1.90;;
72205;SDS011;60111;48.286;7.812;2023-04-25T13:42:24;3.87;;;2.73;;
72205;SDS011;60111;48.286;7.812;2023-04-25T13:44:57;4.67;;;2.50;;
72205;SDS011;60111;48.286;7.812;2023-04-25T13:47:29;2.85;;;2.22;;
72205;SDS011;60111;48.286;7.812;2023-04-25T13:50:02;2.60;;;2.08;;
72205;SDS011;60111;48.286;7.812;2023-04-25T13:52:39;1.85;;;1.75;;
72205;SDS011;60111;48.286;7.812;2023-04-25T13:55:12;3.50;;;2.42;;
72205;SDS011;60111;48.286;7.812;2023-04-25T13:57:44;3.05;;;2.50;;
72205;SDS011;60111;48.286;7.812;2023-04-25T14:00:18;3.27;;;2.75;;
72205;SDS011;60111;48.286;7.812;2023-04-25T14:02:52;2.20;;;2.00;;
72205;SDS011;60111;48.286;7.812;2023-04-25T14:05:24;3.40;;;2.40;;
72205;SDS011;60111;48.286;7.812;2023-04-25T14:07:57;3.83;;;2.80;;
72205;SDS011;60111;48.286;7.812;2023-04-25T14:10:31;2.63;;;2.40;;
72205;SDS011;60111;48.286;7.812;2023-04-25T14:13:04;2.60;;;2.40;;
72205;SDS011;60111;48.286;7.812;2023-04-25T14:15:37;2.50;;;2.30;;
72205;SDS011;60111;48.286;7.812;2023-04-25T14:18:10;4.83;;;3.07;;
72205;SDS011;60111;48.286;7.812;2023-04-25T14:20:42;5.35;;;2.90;;
72205;SDS011;60111;48.286;7.812;2023-04-25T14:23:15;2.75;;;2.50;;
72205;SDS011;60111;48.286;7.812;2023-04-25T14:25:48;3.75;;;2.70;;
72205;SDS011;60111;48.286;7.812;2023-04-25T14:28:21;3.27;;;2.00;;
72205;SDS011;60111;48.286;7.812;2023-04-25T14:30:53;2.37;;;1.75;;
72205;SDS011;60111;48.286;7.812;2023-04-25T14:33:26;3.77;;;2.00;;
72205;SDS011;60111;48.286;7.812;2023-04-25T14:35:59;3.10;;;2.10;;
72205;SDS011;60111;48.286;7.812;2023-04-25T14:38:32;4.55;;;2.15;;
72205;SDS011;60111;48.286;7.812;2023-04-25T14:41:04;6.42;;;3.15;;
72205;SDS011;60111;48.286;7.812;2023-04-25T14:43:37;3.00;;;2.20;;
72205;SDS011;60111;48.286;7.812;2023-04-25T14:46:11;1.72;;;1.62;;
72205;SDS011;60111;48.286;7.812;2023-04-25T14:48:44;3.85;;;1.80;;
72205;SDS011;60111;48.286;7.812;2023-04-25T14:51:20;2.55;;;2.10;;
72205;SDS011;60111;48.286;7.812;2023-04-25T14:53:55;3.10;;;1.90;;
72205;SDS011;60111;48.286;7.812;2023-04-25T14:56:27;2.52;;;2.33;;
72205;SDS011;60111;48.286;7.812;2023-04-25T14:59:00;2.90;;;2.30;;
72205;SDS011;60111;48.286;7.812;2023-04-25T15:01:32;2.05;;;1.82;;
72205;SDS011;60111;48.286;7.812;2023-04-25T15:04:05;2.20;;;2.00;;
72205;SDS011;60111;48.286;7.812;2023-04-25T15:06:38;2.43;;;2.00;;
72205;SDS011;60111;48.286;7.812;2023-04-25T15:11:44;3.40;;;2.15;;
72205;SDS011;60111;48.286;7.812;2023-04-25T15:14:17;4.55;;;3.00;;
72205;SDS011;60111;48.286;7.812;2023-04-25T15:16:49;3.02;;;2.02;;
72205;SDS011;60111;48.286;7.812;2023-04-25T15:19:22;3.62;;;2.00;;
72205;SDS011;60111;48.286;7.812;2023-04-25T15:21:54;2.33;;;2.12;;
72205;SDS011;60111;48.286;7.812;2023-04-25T15:24:27;2.27;;;2.08;;
72205;SDS011;60111;48.286;7.812;2023-04-25T15:27:00;2.80;;;1.90;;
72205;SDS011;60111;48.286;7.812;2023-04-25T15:29:35;2.70;;;2.50;;
72205;SDS011;60111;48.286;7.812;2023-04-25T15:32:07;4.22;;;2.95;;
72205;SDS011;60111;48.286;7.812;2023-04-25T15:34:40;3.95;;;2.17;;
72205;SDS011;60111;48.286;7.812;2023-04-25T15:37:12;4.27;;;1.90;;
72205;SDS011;60111;48.286;7.812;2023-04-25T15:39:45;2.12;;;1.92;;
72205;SDS011;60111;48.286;7.812;2023-04-25T15:42:18;2.07;;;1.80;;